createdAt,value
2018-05-26T00:00:34.149Z,20.92
2018-05-26T00:01:34.117Z,20.92
2018-05-26T00:02:34.114Z,20.91
2018-05-26T00:03:34.099Z,20.91
2018-05-26T00:04:34.136Z,20.92
2018-05-26T00:05:34.176Z,20.89
2018-05-26T00:06:34.143Z,20.89
2018-05-26T00:07:34.147Z,20.87
2018-05-26T00:08:34.125Z,20.87
2018-05-26T00:09:34.129Z,20.87
2018-05-26T00:10:34.158Z,20.87
2018-05-26T00:11:34.134Z,20.85
2018-05-26T00:12:34.163Z,20.87
2018-05-26T00:13:34.123Z,20.84
2018-05-26T00:14:34.128Z,20.85
2018-05-26T00:15:34.113Z,20.82
2018-05-26T00:16:34.153Z,20.84
2018-05-26T00:17:34.187Z,20.82
2018-05-26T00:18:34.154Z,20.84
2018-05-26T00:19:34.146Z,20.84
2018-05-26T00:20:34.124Z,20.82
2018-05-26T00:21:34.143Z,20.82
2018-05-26T00:22:34.120Z,20.84
2018-05-26T00:23:34.140Z,20.84
2018-05-26T00:24:34.165Z,20.82
2018-05-26T00:25:34.356Z,20.82
2018-05-26T00:26:34.144Z,20.82
2018-05-26T00:27:34.133Z,20.77
2018-05-26T00:28:34.144Z,20.77
2018-05-26T00:29:34.156Z,20.7
2018-05-26T00:30:34.156Z,20.7
2018-05-26T00:31:34.180Z,20.68
2018-05-26T00:32:34.140Z,20.65
2018-05-26T00:33:34.144Z,20.64
2018-05-26T00:34:34.147Z,20.65
2018-05-26T00:35:34.134Z,20.61
2018-05-26T00:36:34.133Z,20.61
2018-05-26T00:37:34.118Z,20.6
2018-05-26T00:38:34.124Z,20.6
2018-05-26T00:39:34.152Z,20.6
2018-05-26T00:40:34.133Z,20.57
2018-05-26T00:41:34.176Z,20.58
2018-05-26T00:42:34.218Z,20.58
2018-05-26T00:43:34.188Z,20.57
2018-05-26T00:44:34.310Z,20.55
2018-05-26T00:45:34.178Z,20.55
2018-05-26T00:46:34.227Z,20.52
2018-05-26T00:47:34.133Z,20.52
2018-05-26T00:48:34.137Z,20.55
2018-05-26T00:49:34.138Z,20.55
2018-05-26T00:50:34.140Z,20.51
2018-05-26T00:51:34.202Z,20.5
2018-05-26T00:52:34.153Z,20.54
2018-05-26T00:53:34.146Z,20.5
2018-05-26T00:54:34.161Z,20.52
2018-05-26T00:55:34.146Z,20.51
2018-05-26T00:56:34.147Z,20.51
2018-05-26T00:57:34.173Z,20.5
2018-05-26T00:58:34.165Z,20.5
2018-05-26T00:59:34.213Z,20.51
2018-05-26T01:00:34.146Z,20.51
2018-05-26T01:01:34.174Z,20.5
2018-05-26T01:02:34.206Z,20.47
2018-05-26T01:03:34.184Z,20.46
2018-05-26T01:04:34.296Z,20.46
2018-05-26T01:05:34.192Z,20.44
2018-05-26T01:06:34.163Z,20.4
2018-05-26T01:07:34.170Z,20.4
2018-05-26T01:08:34.211Z,20.41
2018-05-26T01:09:34.284Z,20.4
2018-05-26T01:10:34.172Z,20.39
2018-05-26T01:11:34.181Z,20.37
2018-05-26T01:12:34.158Z,20.37
2018-05-26T01:13:34.150Z,20.39
2018-05-26T01:14:34.165Z,20.37
2018-05-26T01:15:34.182Z,20.34
2018-05-26T01:16:34.181Z,20.36
2018-05-26T01:17:34.597Z,20.32
2018-05-26T01:18:34.332Z,20.32
2018-05-26T01:19:34.156Z,20.32
2018-05-26T01:20:34.156Z,20.32
2018-05-26T01:21:34.149Z,20.29
2018-05-26T01:22:34.171Z,20.27
2018-05-26T01:23:34.162Z,20.23
2018-05-26T01:24:34.187Z,20.23
2018-05-26T01:25:34.149Z,20.2
2018-05-26T01:26:34.174Z,20.22
2018-05-26T01:27:34.218Z,20.22
2018-05-26T01:28:34.184Z,20.22
2018-05-26T01:29:34.159Z,20.19
2018-05-26T01:30:34.253Z,20.17
2018-05-26T01:31:34.176Z,20.17
2018-05-26T01:32:34.185Z,20.16
2018-05-26T01:33:34.480Z,20.17
2018-05-26T01:34:34.176Z,20.17
2018-05-26T01:35:34.162Z,20.16
2018-05-26T01:36:34.177Z,20.17
2018-05-26T01:37:34.179Z,20.17
2018-05-26T01:38:34.176Z,20.15
2018-05-26T01:39:34.165Z,20.13
2018-05-26T01:40:34.191Z,20.12
2018-05-26T01:41:34.194Z,20.12
2018-05-26T01:42:34.200Z,20.12
2018-05-26T01:43:34.179Z,20.12
2018-05-26T01:44:34.219Z,20.12
2018-05-26T01:45:34.184Z,20.11
2018-05-26T01:46:34.185Z,20.11
2018-05-26T01:47:34.207Z,20.09
2018-05-26T01:48:34.195Z,20.11
2018-05-26T01:49:34.220Z,20.11
2018-05-26T01:50:34.213Z,20.11
2018-05-26T01:51:34.185Z,20.08
2018-05-26T01:52:34.241Z,20.06
2018-05-26T01:53:34.164Z,20.05
2018-05-26T01:54:34.201Z,20.06
2018-05-26T01:55:34.191Z,20.02
2018-05-26T01:56:34.171Z,19.99
2018-05-26T01:57:34.237Z,19.98
2018-05-26T01:58:34.215Z,19.98
2018-05-26T01:59:34.196Z,19.96
2018-05-26T02:00:34.209Z,19.95
2018-05-26T02:01:34.181Z,19.93
2018-05-26T02:02:34.183Z,19.95
2018-05-26T02:03:34.200Z,19.92
2018-05-26T02:04:34.224Z,19.91
2018-05-26T02:05:34.241Z,19.88
2018-05-26T02:06:34.181Z,19.88
2018-05-26T02:07:34.187Z,19.89
2018-05-26T02:08:34.197Z,19.91
2018-05-26T02:09:34.339Z,19.91
2018-05-26T02:10:34.377Z,19.91
2018-05-26T02:11:34.199Z,19.91
2018-05-26T02:12:34.247Z,19.92
2018-05-26T02:13:34.182Z,19.89
2018-05-26T02:14:34.207Z,19.89
2018-05-26T02:15:34.195Z,19.89
2018-05-26T02:16:34.246Z,19.88
2018-05-26T02:17:34.250Z,19.88
2018-05-26T02:18:34.200Z,19.88
2018-05-26T02:19:34.371Z,19.86
2018-05-26T02:20:34.259Z,19.88
2018-05-26T02:21:34.197Z,19.86
2018-05-26T02:22:34.247Z,19.79
2018-05-26T02:23:34.188Z,19.81
2018-05-26T02:24:34.552Z,19.77
2018-05-26T02:25:34.209Z,19.74
2018-05-26T02:26:34.461Z,19.74
2018-05-26T02:27:34.208Z,19.74
2018-05-26T02:28:34.218Z,19.75
2018-05-26T02:29:34.219Z,19.77
2018-05-26T02:30:34.244Z,19.77
2018-05-26T02:31:34.256Z,19.72
2018-05-26T02:32:34.234Z,19.7
2018-05-26T02:33:34.244Z,19.7
2018-05-26T02:34:34.375Z,19.67
2018-05-26T02:35:34.237Z,19.67
2018-05-26T02:36:34.240Z,19.67
2018-05-26T02:37:34.265Z,19.67
2018-05-26T02:38:34.191Z,19.65
2018-05-26T02:39:34.198Z,19.61
2018-05-26T02:40:34.205Z,19.58
2018-05-26T02:41:34.190Z,19.61
2018-05-26T02:42:54.486Z,19.61
2018-05-26T02:43:54.506Z,19.61
2018-05-26T02:44:54.498Z,19.61
2018-05-26T02:45:54.506Z,19.6
2018-05-26T02:46:54.495Z,19.61
2018-05-26T02:47:54.465Z,19.61
2018-05-26T02:48:54.473Z,19.61
2018-05-26T02:49:54.509Z,19.58
2018-05-26T02:50:54.450Z,19.56
2018-05-26T02:51:54.481Z,19.58
2018-05-26T02:52:54.504Z,19.57
2018-05-26T02:53:54.451Z,19.49
2018-05-26T02:54:54.512Z,19.5
2018-05-26T02:55:54.470Z,19.47
2018-05-26T02:56:54.487Z,19.46
2018-05-26T02:57:54.459Z,19.42
2018-05-26T02:58:54.475Z,19.4
2018-05-26T02:59:54.469Z,19.43
2018-05-26T03:00:54.491Z,19.43
2018-05-26T03:01:54.496Z,19.4
2018-05-26T03:02:54.471Z,19.42
2018-05-26T03:03:54.479Z,19.4
2018-05-26T03:04:54.486Z,19.42
2018-05-26T03:05:54.499Z,19.4
2018-05-26T03:06:54.491Z,19.4
2018-05-26T03:07:54.454Z,19.4
2018-05-26T03:08:54.505Z,19.36
2018-05-26T03:09:54.507Z,19.32
2018-05-26T03:10:54.486Z,19.32
2018-05-26T03:11:54.488Z,19.33
2018-05-26T03:12:54.790Z,19.32
2018-05-26T03:13:54.500Z,19.3
2018-05-26T03:14:54.491Z,19.27
2018-05-26T03:15:54.456Z,19.29
2018-05-26T03:16:54.483Z,19.3
2018-05-26T03:17:54.528Z,19.17
2018-05-26T03:18:54.483Z,19.19
2018-05-26T03:19:54.464Z,19.22
2018-05-26T03:20:54.471Z,19.19
2018-05-26T03:21:54.450Z,19.16
2018-05-26T03:22:54.462Z,19.13
2018-05-26T03:23:54.472Z,19.12
2018-05-26T03:24:54.679Z,19.1
2018-05-26T03:25:54.458Z,19.1
2018-05-26T03:26:54.464Z,19.12
2018-05-26T03:27:54.441Z,19.12
2018-05-26T03:28:54.460Z,19.06
2018-05-26T03:29:54.466Z,19.08
2018-05-26T03:30:54.448Z,19.06
2018-05-26T03:31:54.447Z,19.08
2018-05-26T03:32:54.543Z,19.06
2018-05-26T03:33:54.459Z,19.08
2018-05-26T03:34:54.439Z,19.12
2018-05-26T03:35:54.482Z,19.15
2018-05-26T03:36:54.431Z,19.13
2018-05-26T03:37:54.542Z,19.16
2018-05-26T03:38:54.525Z,19.19
2018-05-26T03:39:54.442Z,19.22
2018-05-26T03:40:54.473Z,19.23
2018-05-26T03:41:54.462Z,19.22
2018-05-26T03:42:54.511Z,19.26
2018-05-26T03:43:54.460Z,19.21
2018-05-26T03:44:54.458Z,19.17
2018-05-26T03:45:54.494Z,19.19
2018-05-26T03:46:54.479Z,19.19
2018-05-26T03:47:54.427Z,19.22
2018-05-26T03:48:54.473Z,19.23
2018-05-26T03:49:54.559Z,19.25
2018-05-26T03:50:54.609Z,19.25
2018-05-26T03:51:54.485Z,19.23
2018-05-26T03:52:54.418Z,19.25
2018-05-26T03:53:54.438Z,19.26
2018-05-26T03:54:54.817Z,19.26
2018-05-26T03:55:54.428Z,19.27
2018-05-26T03:56:54.447Z,19.29
2018-05-26T03:57:54.453Z,19.3
2018-05-26T03:58:54.446Z,19.27
2018-05-26T03:59:54.449Z,19.29
2018-05-26T04:00:54.447Z,19.29
2018-05-26T04:01:54.455Z,19.3
2018-05-26T04:02:54.502Z,19.32
2018-05-26T04:03:54.423Z,19.32
2018-05-26T04:04:54.593Z,19.3
2018-05-26T04:05:55.038Z,19.33
2018-05-26T04:06:54.430Z,19.33
2018-05-26T04:07:54.626Z,19.34
2018-05-26T04:08:54.427Z,19.3
2018-05-26T04:09:54.449Z,19.33
2018-05-26T04:10:54.444Z,19.32
2018-05-26T04:11:54.447Z,19.36
2018-05-26T04:12:54.461Z,19.33
2018-05-26T04:13:54.430Z,19.33
2018-05-26T04:14:54.449Z,19.39
2018-05-26T04:15:54.454Z,19.34
2018-05-26T04:16:54.525Z,19.36
2018-05-26T04:17:54.425Z,19.37
2018-05-26T04:18:54.417Z,19.37
2018-05-26T04:19:54.507Z,19.36
2018-05-26T04:20:54.421Z,19.37
2018-05-26T04:21:54.799Z,19.36
2018-05-26T04:22:54.438Z,19.37
2018-05-26T04:23:54.695Z,19.33
2018-05-26T04:24:55.820Z,19.36
2018-05-26T04:25:54.459Z,19.36
2018-05-26T04:26:54.464Z,19.33
2018-05-26T04:27:54.458Z,19.34
2018-05-26T04:28:54.421Z,19.34
2018-05-26T04:29:55.093Z,19.34
2018-05-26T04:30:54.578Z,19.37
2018-05-26T04:31:54.686Z,19.34
2018-05-26T04:32:54.505Z,19.36
2018-05-26T04:33:54.484Z,19.36
2018-05-26T04:34:54.554Z,19.34
2018-05-26T04:35:54.461Z,19.36
2018-05-26T04:36:54.499Z,19.36
2018-05-26T04:37:54.523Z,19.39
2018-05-26T04:38:54.486Z,19.39
2018-05-26T04:39:54.455Z,19.39
2018-05-26T04:40:54.443Z,19.4
2018-05-26T04:41:54.433Z,19.36
2018-05-26T04:42:54.449Z,19.4
2018-05-26T04:43:54.453Z,19.37
2018-05-26T04:44:55.381Z,19.39
2018-05-26T04:45:54.530Z,19.37
2018-05-26T04:46:54.457Z,19.36
2018-05-26T04:47:54.444Z,19.36
2018-05-26T04:48:54.455Z,19.37
2018-05-26T04:49:54.423Z,19.36
2018-05-26T04:50:54.460Z,19.36
2018-05-26T04:51:54.485Z,19.34
2018-05-26T04:52:54.447Z,19.39
2018-05-26T04:53:54.491Z,19.37
2018-05-26T04:54:54.486Z,19.4
2018-05-26T04:55:54.453Z,19.39
2018-05-26T04:56:54.483Z,19.39
2018-05-26T04:57:54.439Z,19.42
2018-05-26T04:58:54.413Z,19.43
2018-05-26T04:59:54.452Z,19.43
2018-05-26T05:00:54.440Z,19.47
2018-05-26T05:01:54.432Z,19.46
2018-05-26T05:02:54.551Z,19.46
2018-05-26T05:03:54.451Z,19.47
2018-05-26T05:04:54.438Z,19.49
2018-05-26T05:05:54.428Z,19.51
2018-05-26T05:06:54.451Z,19.5
2018-05-26T05:07:54.580Z,19.51
2018-05-26T05:08:54.479Z,19.57
2018-05-26T05:09:54.453Z,19.57
2018-05-26T05:10:54.455Z,19.58
2018-05-26T05:11:54.401Z,19.57
2018-05-26T05:12:54.423Z,19.56
2018-05-26T05:13:54.394Z,19.57
2018-05-26T05:14:54.425Z,19.6
2018-05-26T05:15:54.403Z,19.57
2018-05-26T05:16:54.414Z,19.53
2018-05-26T05:17:54.413Z,19.51
2018-05-26T05:18:54.412Z,19.5
2018-05-26T05:19:54.421Z,19.54
2018-05-26T05:20:54.514Z,19.51
2018-05-26T05:21:54.435Z,19.56
2018-05-26T05:22:54.719Z,19.57
2018-05-26T05:23:54.403Z,19.58
2018-05-26T05:24:54.419Z,19.61
2018-05-26T05:25:54.411Z,19.65
2018-05-26T05:26:54.397Z,19.7
2018-05-26T05:27:54.746Z,19.7
2018-05-26T05:28:54.416Z,19.67
2018-05-26T05:29:54.434Z,19.74
2018-05-26T05:30:54.466Z,19.74
2018-05-26T05:31:55.219Z,19.75
2018-05-26T05:32:54.442Z,19.74
2018-05-26T05:33:54.618Z,19.78
2018-05-26T05:34:54.429Z,19.79
2018-05-26T05:35:54.415Z,19.72
2018-05-26T05:36:54.423Z,19.7
2018-05-26T05:37:54.458Z,19.75
2018-05-26T05:38:54.389Z,19.78
2018-05-26T05:39:54.463Z,19.79
2018-05-26T05:40:54.440Z,19.82
2018-05-26T05:41:54.535Z,19.82
2018-05-26T05:42:54.424Z,19.81
2018-05-26T05:43:54.467Z,19.85
2018-05-26T05:44:54.439Z,19.85
2018-05-26T05:45:54.391Z,19.89
2018-05-26T05:46:54.401Z,19.88
2018-05-26T05:47:54.392Z,19.92
2018-05-26T05:48:54.401Z,19.91
2018-05-26T05:49:54.404Z,19.89
2018-05-26T05:50:54.413Z,19.88
2018-05-26T05:51:54.387Z,19.91
2018-05-26T05:52:54.471Z,19.91
2018-05-26T05:53:54.581Z,19.93
2018-05-26T05:54:54.525Z,19.93
2018-05-26T05:55:54.423Z,19.95
2018-05-26T05:56:54.431Z,19.96
2018-05-26T05:57:54.504Z,19.95
2018-05-26T05:58:54.666Z,20.01
2018-05-26T05:59:54.417Z,20.01
2018-05-26T06:00:54.421Z,20.04
2018-05-26T06:01:54.417Z,20.04
2018-05-26T06:02:54.420Z,20.08
2018-05-26T06:03:54.411Z,20.05
2018-05-26T06:04:54.449Z,20.09
2018-05-26T06:05:54.553Z,20.09
2018-05-26T06:06:54.649Z,20.11
2018-05-26T06:07:54.429Z,20.12
2018-05-26T06:08:54.403Z,20.15
2018-05-26T06:09:54.572Z,20.15
2018-05-26T06:10:54.503Z,20.13
2018-05-26T06:11:54.385Z,20.16
2018-05-26T06:12:54.406Z,20.13
2018-05-26T06:13:54.545Z,20.16
2018-05-26T06:14:54.566Z,20.16
2018-05-26T06:15:54.421Z,20.17
2018-05-26T06:16:54.421Z,20.19
2018-05-26T06:17:54.777Z,20.19
2018-05-26T06:18:54.439Z,20.19
2018-05-26T06:19:54.393Z,20.17
2018-05-26T06:20:54.403Z,20.16
2018-05-26T06:21:54.445Z,20.17
2018-05-26T06:22:54.374Z,20.17
2018-05-26T06:23:54.399Z,20.15
2018-05-26T06:24:54.400Z,20.15
2018-05-26T06:25:54.404Z,20.16
2018-05-26T06:26:54.370Z,20.16
2018-05-26T06:27:54.378Z,20.16
2018-05-26T06:28:54.384Z,20.15
2018-05-26T06:29:54.408Z,20.15
2018-05-26T06:30:54.391Z,20.11
2018-05-26T06:31:54.407Z,20.13
2018-05-26T06:32:54.368Z,20.16
2018-05-26T06:33:54.381Z,20.15
2018-05-26T06:34:54.476Z,20.17
2018-05-26T06:35:54.491Z,20.2
2018-05-26T06:36:54.367Z,20.17
2018-05-26T06:37:54.452Z,20.19
2018-05-26T06:38:54.391Z,20.22
2018-05-26T06:39:54.415Z,20.24
2018-05-26T06:40:54.450Z,20.26
2018-05-26T06:41:54.458Z,20.27
2018-05-26T06:42:54.375Z,20.29
2018-05-26T06:43:54.360Z,20.32
2018-05-26T06:44:54.374Z,20.33
2018-05-26T06:45:54.392Z,20.39
2018-05-26T06:46:54.601Z,20.41
2018-05-26T06:47:54.386Z,20.44
2018-05-26T06:48:54.718Z,20.48
2018-05-26T06:49:54.383Z,20.51
2018-05-26T06:50:54.519Z,20.54
2018-05-26T06:51:54.397Z,20.54
2018-05-26T06:52:54.409Z,20.57
2018-05-26T06:53:54.489Z,20.58
2018-05-26T06:54:54.364Z,20.61
2018-05-26T06:55:54.703Z,20.64
2018-05-26T06:56:54.367Z,20.64
2018-05-26T06:57:54.380Z,20.68
2018-05-26T06:58:54.409Z,20.72
2018-05-26T06:59:54.348Z,20.72
2018-05-26T07:00:54.638Z,20.75
2018-05-26T07:01:54.356Z,20.77
2018-05-26T07:02:54.381Z,20.79
2018-05-26T07:03:54.363Z,20.82
2018-05-26T07:04:54.527Z,20.85
2018-05-26T07:05:54.653Z,20.88
2018-05-26T07:06:54.388Z,20.92
2018-05-26T07:07:54.377Z,20.94
2018-05-26T07:08:55.221Z,20.94
2018-05-26T07:09:54.365Z,20.96
2018-05-26T07:10:54.345Z,20.99
2018-05-26T07:11:54.359Z,21.01
2018-05-26T07:12:54.404Z,21.02
2018-05-26T07:13:54.386Z,21.05
2018-05-26T07:14:54.350Z,21.07
2018-05-26T07:15:54.427Z,21.1
2018-05-26T07:16:54.381Z,21.13
2018-05-26T07:17:54.362Z,21.16
2018-05-26T07:18:54.361Z,21.17
2018-05-26T07:19:54.356Z,21.19
2018-05-26T07:20:54.358Z,21.2
2018-05-26T07:21:54.375Z,21.24
2018-05-26T07:22:54.633Z,21.26
2018-05-26T07:23:54.401Z,21.3
2018-05-26T07:24:54.443Z,21.32
2018-05-26T07:25:54.375Z,21.34
2018-05-26T07:26:54.383Z,21.37
2018-05-26T07:27:54.446Z,21.41
2018-05-26T07:28:54.356Z,21.44
2018-05-26T07:29:54.393Z,21.49
2018-05-26T07:30:54.401Z,21.53
2018-05-26T07:31:54.339Z,21.56
2018-05-26T07:32:54.335Z,21.58
2018-05-26T07:33:54.340Z,21.61
2018-05-26T07:34:54.427Z,21.67
2018-05-26T07:35:55.045Z,21.68
2018-05-26T07:36:54.337Z,21.74
2018-05-26T07:37:54.344Z,21.77
2018-05-26T07:38:54.408Z,21.79
2018-05-26T07:39:54.376Z,21.84
2018-05-26T07:40:54.438Z,21.91
2018-05-26T07:41:54.331Z,21.92
2018-05-26T07:42:54.493Z,21.86
2018-05-26T07:43:54.368Z,21.84
2018-05-26T07:44:54.352Z,21.86
2018-05-26T07:45:55.336Z,21.88
2018-05-26T07:46:54.389Z,21.88
2018-05-26T07:47:54.383Z,21.92
2018-05-26T07:48:54.361Z,21.96
2018-05-26T07:49:54.349Z,21.98
2018-05-26T07:50:54.700Z,22.01
2018-05-26T07:51:54.348Z,21.99
2018-05-26T07:52:54.348Z,21.95
2018-05-26T07:53:54.907Z,21.98
2018-05-26T07:54:54.389Z,21.99
2018-05-26T07:55:54.343Z,22.03
2018-05-26T07:56:54.342Z,22.01
2018-05-26T07:57:55.019Z,22.09
2018-05-26T07:58:54.384Z,22.09
2018-05-26T07:59:54.442Z,22.11
2018-05-26T08:00:54.423Z,22.16
2018-05-26T08:01:55.407Z,22.19
2018-05-26T08:02:54.377Z,22.26
2018-05-26T08:03:54.356Z,22.33
2018-05-26T08:04:54.352Z,22.36
2018-05-26T08:05:54.345Z,22.36
2018-05-26T08:06:54.354Z,22.36
2018-05-26T08:07:54.352Z,22.34
2018-05-26T08:08:54.396Z,22.33
2018-05-26T08:09:54.323Z,22.36
2018-05-26T08:10:54.572Z,22.41
2018-05-26T08:11:54.361Z,22.53
2018-05-26T08:12:54.393Z,22.54
2018-05-26T08:13:54.380Z,22.58
2018-05-26T08:14:54.368Z,22.58
2018-05-26T08:15:54.323Z,22.6
2018-05-26T08:16:54.480Z,22.65
2018-05-26T08:17:54.337Z,22.68
2018-05-26T08:18:54.388Z,22.72
2018-05-26T08:19:54.356Z,22.78
2018-05-26T08:20:54.366Z,22.81
2018-05-26T08:21:54.361Z,22.82
2018-05-26T08:22:54.377Z,22.84
2018-05-26T08:23:54.317Z,22.86
2018-05-26T08:24:54.353Z,22.88
2018-05-26T08:25:54.515Z,22.92
2018-05-26T08:26:54.357Z,22.95
2018-05-26T08:27:54.323Z,22.99
2018-05-26T08:28:54.407Z,23.02
2018-05-26T08:29:54.494Z,23.03
2018-05-26T08:30:54.503Z,23.05
2018-05-26T08:31:54.307Z,23.09
2018-05-26T08:32:54.323Z,23.13
2018-05-26T08:33:54.765Z,23.16
2018-05-26T08:34:54.322Z,23.18
2018-05-26T08:35:54.367Z,23.22
2018-05-26T08:36:54.332Z,23.27
2018-05-26T08:37:54.363Z,23.29
2018-05-26T08:38:54.822Z,23.32
2018-05-26T08:39:54.868Z,23.37
2018-05-26T08:40:54.339Z,23.37
2018-05-26T08:41:54.331Z,23.34
2018-05-26T08:42:54.351Z,23.34
2018-05-26T08:43:54.844Z,23.36
2018-05-26T08:44:54.356Z,23.4
2018-05-26T08:45:54.373Z,23.4
2018-05-26T08:46:54.312Z,23.44
2018-05-26T08:47:54.357Z,23.47
2018-05-26T08:48:54.337Z,23.5
2018-05-26T08:49:54.341Z,23.53
2018-05-26T08:50:54.345Z,23.58
2018-05-26T08:51:54.331Z,23.65
2018-05-26T08:52:54.329Z,23.67
2018-05-26T08:53:54.358Z,23.69
2018-05-26T08:54:56.077Z,23.69
2018-05-26T08:55:54.329Z,23.73
2018-05-26T08:56:54.347Z,23.75
2018-05-26T08:57:54.321Z,23.8
2018-05-26T08:58:54.415Z,23.84
2018-05-26T08:59:54.495Z,23.88
2018-05-26T09:00:54.355Z,23.88
2018-05-26T09:01:54.343Z,23.92
2018-05-26T09:02:54.313Z,23.96
2018-05-26T09:03:56.552Z,24.01
2018-05-26T09:04:54.358Z,24.06
2018-05-26T09:05:54.309Z,24.06
2018-05-26T09:06:54.324Z,24.1
2018-05-26T09:07:54.332Z,24.16
2018-05-26T09:08:54.317Z,24.2
2018-05-26T09:09:54.340Z,24.19
2018-05-26T09:10:54.439Z,24.17
2018-05-26T09:11:56.340Z,24.17
2018-05-26T09:12:54.367Z,24.17
2018-05-26T09:13:54.326Z,24.15
2018-05-26T09:14:54.496Z,24.13
2018-05-26T09:15:54.719Z,24.15
2018-05-26T09:16:54.338Z,24.13
2018-05-26T09:17:55.853Z,24.13
2018-05-26T09:18:54.346Z,24.13
2018-05-26T09:19:54.342Z,24.15
2018-05-26T09:20:54.365Z,24.17
2018-05-26T09:21:54.466Z,24.19
2018-05-26T09:22:54.336Z,24.23
2018-05-26T09:23:54.339Z,24.2
2018-05-26T09:24:54.295Z,24.2
2018-05-26T09:25:54.294Z,24.2
2018-05-26T09:26:54.310Z,24.23
2018-05-26T09:27:54.326Z,24.26
2018-05-26T09:28:54.341Z,24.24
2018-05-26T09:29:54.321Z,24.32
2018-05-26T09:30:54.329Z,24.35
2018-05-26T09:31:54.310Z,24.37
2018-05-26T09:32:54.291Z,24.39
2018-05-26T09:33:54.345Z,24.43
2018-05-26T09:34:54.344Z,24.48
2018-05-26T09:35:54.321Z,24.57
2018-05-26T09:36:55.108Z,24.61
2018-05-26T09:37:54.361Z,24.65
2018-05-26T09:38:54.427Z,24.65
2018-05-26T09:39:54.290Z,24.68
2018-05-26T09:40:54.515Z,24.7
2018-05-26T09:41:54.494Z,24.71
2018-05-26T09:42:54.340Z,24.77
2018-05-26T09:43:54.338Z,24.79
2018-05-26T09:44:54.323Z,24.82
2018-05-26T09:45:54.335Z,24.89
2018-05-26T09:46:55.043Z,24.92
2018-05-26T09:47:55.046Z,24.94
2018-05-26T09:48:54.396Z,25.01
2018-05-26T09:49:54.324Z,25.05
2018-05-26T09:50:54.340Z,25.09
2018-05-26T09:51:54.341Z,25.15
2018-05-26T09:52:54.352Z,25.12
2018-05-26T09:53:55.444Z,25.09
2018-05-26T09:54:55.256Z,25.12
2018-05-26T09:55:55.117Z,25.15
2018-05-26T09:56:55.121Z,25.15
2018-05-26T09:57:55.983Z,25.22
2018-05-26T09:58:55.784Z,25.32
2018-05-26T09:59:54.312Z,25.32
2018-05-26T10:00:54.368Z,25.33
2018-05-26T10:01:54.376Z,25.43
2018-05-26T10:02:56.041Z,25.41
2018-05-26T10:03:55.972Z,25.34
2018-05-26T10:04:55.144Z,25.37
2018-05-26T10:05:54.366Z,25.3
2018-05-26T10:06:55.578Z,25.34
2018-05-26T10:07:54.386Z,25.38
2018-05-26T10:08:55.683Z,25.4
2018-05-26T10:09:55.282Z,25.48
2018-05-26T10:10:55.060Z,25.5
2018-05-26T10:11:54.892Z,25.5
2018-05-26T10:12:54.379Z,25.47
2018-05-26T10:13:55.154Z,25.5
2018-05-26T10:14:54.360Z,25.53
2018-05-26T10:15:54.374Z,25.57
2018-05-26T10:16:55.840Z,25.65
2018-05-26T10:17:54.418Z,25.65
2018-05-26T10:18:54.824Z,25.7
2018-05-26T10:19:55.248Z,25.71
2018-05-26T10:20:55.842Z,25.75
2018-05-26T10:21:55.101Z,25.78
2018-05-26T10:22:55.070Z,25.8
2018-05-26T10:23:54.357Z,25.8
2018-05-26T10:24:55.088Z,25.87
2018-05-26T10:25:55.872Z,25.84
2018-05-26T10:26:55.103Z,25.81
2018-05-26T10:27:54.349Z,25.82
2018-05-26T10:28:54.368Z,25.89
2018-05-26T10:29:55.179Z,25.85
2018-05-26T10:30:56.007Z,25.88
2018-05-26T10:31:54.440Z,25.96
2018-05-26T10:32:54.381Z,26.02
2018-05-26T10:33:55.620Z,26
2018-05-26T10:34:55.749Z,26.09
2018-05-26T10:35:54.440Z,26.17
2018-05-26T10:36:54.410Z,26.13
2018-05-26T10:37:55.579Z,26.12
2018-05-26T10:38:54.279Z,26.13
2018-05-26T10:39:55.092Z,26.15
2018-05-26T10:40:54.333Z,26.19
2018-05-26T10:41:54.354Z,26.05
2018-05-26T10:42:54.275Z,26.1
2018-05-26T10:43:55.298Z,25.98
2018-05-26T10:44:55.176Z,26.02
2018-05-26T10:45:54.265Z,26.05
2018-05-26T10:46:54.362Z,26.06
2018-05-26T10:47:54.294Z,26.05
2018-05-26T10:48:54.358Z,26.02
2018-05-26T10:49:54.604Z,26.05
2018-05-26T10:50:54.464Z,26.08
2018-05-26T10:51:54.276Z,26.05
2018-05-26T10:52:54.481Z,26.08
2018-05-26T10:53:54.351Z,26.09
2018-05-26T10:54:54.408Z,26.1
2018-05-26T10:55:54.620Z,26.08
2018-05-26T10:56:54.347Z,26.09
2018-05-26T10:57:54.353Z,26.12
2018-05-26T10:58:54.309Z,26.17
2018-05-26T10:59:54.383Z,26.16
2018-05-26T11:00:54.274Z,26.16
2018-05-26T11:01:54.375Z,26.09
2018-05-26T11:02:54.300Z,26.26
2018-05-26T11:03:54.361Z,26.23
2018-05-26T11:04:54.506Z,26.29
2018-05-26T11:05:54.338Z,26.26
2018-05-26T11:06:54.698Z,26.33
2018-05-26T11:07:54.298Z,26.29
2018-05-26T11:08:54.432Z,26.4
2018-05-26T11:09:54.276Z,26.46
2018-05-26T11:10:54.445Z,26.47
2018-05-26T11:11:54.388Z,26.53
2018-05-26T11:12:54.417Z,26.57
2018-05-26T11:13:54.479Z,26.64
2018-05-26T11:14:54.944Z,26.65
2018-05-26T11:15:54.304Z,26.68
2018-05-26T11:16:55.403Z,26.75
2018-05-26T11:17:55.425Z,26.75
2018-05-26T11:18:54.613Z,26.84
2018-05-26T11:19:54.500Z,26.82
2018-05-26T11:20:54.323Z,26.85
2018-05-26T11:21:54.273Z,26.91
2018-05-26T11:22:54.481Z,26.94
2018-05-26T11:23:54.361Z,27.01
2018-05-26T11:24:54.582Z,27.02
2018-05-26T11:25:54.344Z,27.06
2018-05-26T11:26:54.642Z,27.07
2018-05-26T11:27:54.356Z,27.09
2018-05-26T11:28:54.617Z,27.12
2018-05-26T11:29:54.562Z,27.17
2018-05-26T11:30:54.468Z,27.22
2018-05-26T11:31:54.512Z,27.24
2018-05-26T11:32:54.336Z,27.32
2018-05-26T11:33:54.263Z,27.33
2018-05-26T11:34:54.401Z,27.34
2018-05-26T11:35:54.267Z,27.36
2018-05-26T11:36:54.273Z,27.37
2018-05-26T11:37:54.414Z,27.39
2018-05-26T11:38:54.251Z,27.3
2018-05-26T11:39:54.240Z,27.24
2018-05-26T11:40:54.386Z,27.26
2018-05-26T11:41:54.412Z,27.33
2018-05-26T11:42:54.277Z,27.33
2018-05-26T11:43:54.285Z,27.36
2018-05-26T11:44:54.290Z,27.41
2018-05-26T11:45:54.274Z,27.44
2018-05-26T11:46:54.375Z,27.5
2018-05-26T11:47:54.390Z,27.51
2018-05-26T11:48:54.289Z,27.53
2018-05-26T11:49:54.390Z,27.53
2018-05-26T11:50:54.259Z,27.56
2018-05-26T11:51:54.266Z,27.53
2018-05-26T11:52:54.418Z,27.53
2018-05-26T11:53:54.294Z,27.58
2018-05-26T11:54:54.266Z,27.61
2018-05-26T11:55:54.333Z,27.62
2018-05-26T11:56:54.255Z,27.65
2018-05-26T11:57:54.272Z,27.67
2018-05-26T11:58:54.368Z,27.57
2018-05-26T11:59:54.269Z,27.46
2018-05-26T12:00:54.273Z,27.43
2018-05-26T12:01:54.555Z,27.47
2018-05-26T12:02:54.485Z,27.53
2018-05-26T12:03:54.252Z,27.56
2018-05-26T12:04:54.396Z,27.58
2018-05-26T12:05:54.263Z,27.61
2018-05-26T12:06:54.442Z,27.61
2018-05-26T12:07:54.317Z,27.67
2018-05-26T12:08:54.270Z,27.65
2018-05-26T12:09:54.263Z,27.68
2018-05-26T12:10:54.706Z,27.7
2018-05-26T12:11:54.273Z,27.77
2018-05-26T12:12:54.494Z,27.75
2018-05-26T12:13:54.359Z,27.46
2018-05-26T12:14:54.272Z,27.23
2018-05-26T12:15:54.260Z,27.16
2018-05-26T12:16:54.574Z,27.15
2018-05-26T12:17:54.493Z,27.23
2018-05-26T12:18:54.301Z,27.22
2018-05-26T12:19:54.408Z,27.29
2018-05-26T12:20:54.363Z,27.34
2018-05-26T12:21:54.352Z,27.32
2018-05-26T12:22:54.323Z,27.39
2018-05-26T12:23:54.252Z,27.54
2018-05-26T12:24:54.350Z,27.64
2018-05-26T12:25:54.266Z,27.67
2018-05-26T12:26:54.373Z,27.75
2018-05-26T12:27:54.259Z,27.79
2018-05-26T12:28:54.309Z,27.85
2018-05-26T12:29:54.262Z,27.72
2018-05-26T12:30:54.259Z,27.64
2018-05-26T12:31:54.399Z,27.72
2018-05-26T12:32:54.694Z,27.78
2018-05-26T12:33:54.293Z,27.78
2018-05-26T12:34:55.425Z,27.88
2018-05-26T12:35:54.261Z,27.93
2018-05-26T12:36:54.250Z,27.93
2018-05-26T12:37:56.369Z,28.01
2018-05-26T12:38:54.243Z,28.06
2018-05-26T12:39:54.264Z,28.08
2018-05-26T12:40:54.451Z,28.12
2018-05-26T12:41:54.472Z,28.18
2018-05-26T12:42:54.293Z,28.23
2018-05-26T12:43:54.376Z,28.33
2018-05-26T12:44:54.768Z,28.37
2018-05-26T12:45:54.265Z,28.44
2018-05-26T12:46:54.375Z,28.46
2018-05-26T12:47:54.278Z,28.47
2018-05-26T12:48:54.276Z,28.13
2018-05-26T12:49:54.403Z,28.13
2018-05-26T12:50:54.255Z,28.09
2018-05-26T12:51:54.416Z,28.05
2018-05-26T12:52:54.276Z,28.06
2018-05-26T12:53:54.244Z,28.13
2018-05-26T12:54:54.272Z,28.01
2018-05-26T12:55:54.286Z,27.96